sensor_id;sensor_type;location;lat;lon;timestamp;P1;durP1;ratioP1;P2;durP2;ratioP2
72785;SDS011;60902;53.876;10.674;2023-02-26T00:00:08;3.75;;;0.95;;
72785;SDS011;60902;53.876;10.674;2023-02-26T00:00:24;4.18;;;0.80;;
72785;SDS011;60902;53.876;10.674;2023-02-26T00:00:34;3.67;;;0.80;;
72785;SDS011;60902;53.876;10.674;2023-02-26T00:00:47;3.55;;;0.77;;
72785;SDS011;60902;53.876;10.674;2023-02-26T00:00:58;3.53;;;0.93;;
72785;SDS011;60902;53.876;10.674;2023-02-26T00:01:12;3.38;;;0.90;;
72785;SDS011;60902;53.876;10.674;2023-02-26T00:01:24;3.23;;;1.30;;
72785;SDS011;60902;53.876;10.674;2023-02-26T00:01:37;3.65;;;1.33;;
72785;SDS011;60902;53.876;10.674;2023-02-26T00:01:48;3.70;;;0.90;;
72785;SDS011;60902;53.876;10.674;2023-02-26T00:01:59;3.63;;;0.80;;
72785;SDS011;60902;53.876;10.674;2023-02-26T00:02:11;3.40;;;0.80;;
72785;SDS011;60902;53.876;10.674;2023-02-26T00:02:22;3.05;;;0.75;;
72785;SDS011;60902;53.876;10.674;2023-02-26T00:02:33;2.97;;;0.80;;
72785;SDS011;60902;53.876;10.674;2023-02-26T00:02:45;2.70;;;0.60;;
72785;SDS011;60902;53.876;10.674;2023-02-26T00:02:57;2.72;;;0.63;;
72785;SDS011;60902;53.876;10.674;2023-02-26T00:03:08;2.92;;;0.80;;
72785;SDS011;60902;53.876;10.674;2023-02-26T00:03:19;3.00;;;0.95;;
72785;SDS011;60902;53.876;10.674;2023-02-26T00:03:30;3.47;;;1.00;;
72785;SDS011;60902;53.876;10.674;2023-02-26T00:03:42;3.65;;;0.95;;
72785;SDS011;60902;53.876;10.674;2023-02-26T00:03:54;3.65;;;0.80;;
72785;SDS011;60902;53.876;10.674;2023-02-26T00:04:06;3.58;;;0.80;;
72785;SDS011;60902;53.876;10.674;2023-02-26T00:04:18;4.50;;;0.90;;
72785;SDS011;60902;53.876;10.674;2023-02-26T00:04:29;4.53;;;0.93;;
72785;SDS011;60902;53.876;10.674;2023-02-26T00:04:40;3.97;;;0.80;;
72785;SDS011;60902;53.876;10.674;2023-02-26T00:04:51;3.28;;;0.60;;
72785;SDS011;60902;53.876;10.674;2023-02-26T00:05:02;2.90;;;0.63;;
72785;SDS011;60902;53.876;10.674;2023-02-26T00:05:13;2.38;;;0.60;;
72785;SDS011;60902;53.876;10.674;2023-02-26T00:05:26;3.17;;;0.82;;
72785;SDS011;60902;53.876;10.674;2023-02-26T00:05:37;3.90;;;0.90;;
72785;SDS011;60902;53.876;10.674;2023-02-26T00:05:48;4.07;;;1.00;;
72785;SDS011;60902;53.876;10.674;2023-02-26T00:05:59;3.17;;;0.73;;
72785;SDS011;60902;53.876;10.674;2023-02-26T00:06:11;2.53;;;0.65;;
72785;SDS011;60902;53.876;10.674;2023-02-26T00:06:22;3.10;;;0.65;;
72785;SDS011;60902;53.876;10.674;2023-02-26T00:06:34;3.45;;;0.80;;
72785;SDS011;60902;53.876;10.674;2023-02-26T00:06:47;3.13;;;0.75;;
72785;SDS011;60902;53.876;10.674;2023-02-26T00:07:05;2.67;;;1.17;;
72785;SDS011;60902;53.876;10.674;2023-02-26T00:07:15;3.20;;;1.30;;
72785;SDS011;60902;53.876;10.674;2023-02-26T00:07:26;3.78;;;1.30;;
72785;SDS011;60902;53.876;10.674;2023-02-26T00:07:38;3.90;;;0.70;;
72785;SDS011;60902;53.876;10.674;2023-02-26T00:07:49;3.30;;;0.65;;
72785;SDS011;60902;53.876;10.674;2023-02-26T00:08:00;3.30;;;0.73;;
72785;SDS011;60902;53.876;10.674;2023-02-26T00:08:14;3.72;;;0.93;;
72785;SDS011;60902;53.876;10.674;2023-02-26T00:08:26;4.05;;;1.00;;
72785;SDS011;60902;53.876;10.674;2023-02-26T00:08:37;3.72;;;0.90;;
72785;SDS011;60902;53.876;10.674;2023-02-26T00:08:48;3.53;;;0.90;;
72785;SDS011;60902;53.876;10.674;2023-02-26T00:08:59;3.67;;;0.85;;
72785;SDS011;60902;53.876;10.674;2023-02-26T00:09:11;3.65;;;0.73;;
72785;SDS011;60902;53.876;10.674;2023-02-26T00:09:22;4.05;;;0.80;;
72785;SDS011;60902;53.876;10.674;2023-02-26T00:09:33;3.83;;;0.90;;
72785;SDS011;60902;53.876;10.674;2023-02-26T00:09:44;3.90;;;0.98;;
72785;SDS011;60902;53.876;10.674;2023-02-26T00:09:55;3.72;;;1.00;;
72785;SDS011;60902;53.876;10.674;2023-02-26T00:10:08;4.22;;;0.82;;
72785;SDS011;60902;53.876;10.674;2023-02-26T00:10:22;3.58;;;0.80;;
72785;SDS011;60902;53.876;10.674;2023-02-26T00:10:33;2.90;;;0.77;;
72785;SDS011;60902;53.876;10.674;2023-02-26T00:10:44;2.83;;;0.70;;
72785;SDS011;60902;53.876;10.674;2023-02-26T00:10:55;2.97;;;0.70;;
72785;SDS011;60902;53.876;10.674;2023-02-26T00:11:07;3.05;;;0.77;;
72785;SDS011;60902;53.876;10.674;2023-02-26T00:11:19;3.33;;;0.75;;
72785;SDS011;60902;53.876;10.674;2023-02-26T00:11:31;3.13;;;0.60;;
72785;SDS011;60902;53.876;10.674;2023-02-26T00:11:45;3.47;;;0.73;;
72785;SDS011;60902;53.876;10.674;2023-02-26T00:11:57;3.20;;;0.80;;
72785;SDS011;60902;53.876;10.674;2023-02-26T00:12:10;3.30;;;0.80;;
72785;SDS011;60902;53.876;10.674;2023-02-26T00:12:21;3.08;;;0.73;;
72785;SDS011;60902;53.876;10.674;2023-02-26T00:12:33;3.30;;;0.70;;
72785;SDS011;60902;53.876;10.674;2023-02-26T00:12:45;3.20;;;0.60;;
72785;SDS011;60902;53.876;10.674;2023-02-26T00:12:56;3.33;;;0.70;;
72785;SDS011;60902;53.876;10.674;2023-02-26T00:13:10;3.83;;;0.77;;
72785;SDS011;60902;53.876;10.674;2023-02-26T00:13:22;3.72;;;0.73;;
72785;SDS011;60902;53.876;10.674;2023-02-26T00:13:34;3.25;;;0.77;;
72785;SDS011;60902;53.876;10.674;2023-02-26T00:13:46;2.85;;;0.80;;
72785;SDS011;60902;53.876;10.674;2023-02-26T00:13:57;3.03;;;0.80;;
72785;SDS011;60902;53.876;10.674;2023-02-26T00:14:09;3.08;;;0.70;;
72785;SDS011;60902;53.876;10.674;2023-02-26T00:14:23;2.72;;;0.63;;
72785;SDS011;60902;53.876;10.674;2023-02-26T00:14:36;2.90;;;0.60;;
72785;SDS011;60902;53.876;10.674;2023-02-26T00:14:48;3.53;;;0.80;;
72785;SDS011;60902;53.876;10.674;2023-02-26T00:15:00;3.93;;;0.87;;
72785;SDS011;60902;53.876;10.674;2023-02-26T00:15:11;3.70;;;0.88;;
72785;SDS011;60902;53.876;10.674;2023-02-26T00:15:24;4.05;;;0.80;;
72785;SDS011;60902;53.876;10.674;2023-02-26T00:15:36;3.92;;;0.93;;
72785;SDS011;60902;53.876;10.674;2023-02-26T00:15:47;4.13;;;1.00;;
72785;SDS011;60902;53.876;10.674;2023-02-26T00:16:00;3.35;;;0.75;;
72785;SDS011;60902;53.876;10.674;2023-02-26T00:16:13;2.45;;;0.68;;
72785;SDS011;60902;53.876;10.674;2023-02-26T00:16:35;2.67;;;0.70;;
72785;SDS011;60902;53.876;10.674;2023-02-26T00:16:49;3.78;;;1.00;;
72785;SDS011;60902;53.876;10.674;2023-02-26T00:17:19;3.35;;;0.80;;
72785;SDS011;60902;53.876;10.674;2023-02-26T00:17:53;4.00;;;0.93;;
72785;SDS011;60902;53.876;10.674;2023-02-26T00:18:08;3.25;;;0.80;;
72785;SDS011;60902;53.876;10.674;2023-02-26T00:18:25;4.13;;;1.02;;
72785;SDS011;60902;53.876;10.674;2023-02-26T00:18:36;4.18;;;0.90;;
72785;SDS011;60902;53.876;10.674;2023-02-26T00:18:47;3.25;;;0.70;;
72785;SDS011;60902;53.876;10.674;2023-02-26T00:18:59;3.08;;;0.70;;
72785;SDS011;60902;53.876;10.674;2023-02-26T00:19:13;3.03;;;0.70;;
72785;SDS011;60902;53.876;10.674;2023-02-26T00:19:24;2.83;;;0.75;;
72785;SDS011;60902;53.876;10.674;2023-02-26T00:19:36;2.75;;;0.85;;
72785;SDS011;60902;53.876;10.674;2023-02-26T00:19:47;3.60;;;1.00;;
72785;SDS011;60902;53.876;10.674;2023-02-26T00:19:59;3.65;;;1.00;;
72785;SDS011;60902;53.876;10.674;2023-02-26T00:20:10;4.40;;;1.10;;
72785;SDS011;60902;53.876;10.674;2023-02-26T00:20:22;4.20;;;1.10;;
72785;SDS011;60902;53.876;10.674;2023-02-26T00:20:37;4.85;;;0.90;;
72785;SDS011;60902;53.876;10.674;2023-02-26T00:20:49;3.43;;;0.80;;
72785;SDS011;60902;53.876;10.674;2023-02-26T00:21:00;3.10;;;0.80;;
72785;SDS011;60902;53.876;10.674;2023-02-26T00:21:14;2.70;;;0.90;;
72785;SDS011;60902;53.876;10.674;2023-02-26T00:21:26;3.28;;;0.90;;
72785;SDS011;60902;53.876;10.674;2023-02-26T00:21:39;3.10;;;0.80;;
72785;SDS011;60902;53.876;10.674;2023-02-26T00:21:50;2.45;;;0.80;;
72785;SDS011;60902;53.876;10.674;2023-02-26T00:22:03;4.13;;;1.10;;
72785;SDS011;60902;53.876;10.674;2023-02-26T00:22:14;3.97;;;1.00;;
72785;SDS011;60902;53.876;10.674;2023-02-26T00:22:27;3.38;;;1.00;;
72785;SDS011;60902;53.876;10.674;2023-02-26T00:22:39;3.50;;;0.88;;
72785;SDS011;60902;53.876;10.674;2023-02-26T00:22:50;3.30;;;0.82;;
72785;SDS011;60902;53.876;10.674;2023-02-26T00:23:02;3.08;;;1.02;;
72785;SDS011;60902;53.876;10.674;2023-02-26T00:23:14;2.75;;;0.80;;
72785;SDS011;60902;53.876;10.674;2023-02-26T00:23:25;2.73;;;0.83;;
72785;SDS011;60902;53.876;10.674;2023-02-26T00:23:36;2.85;;;0.80;;
72785;SDS011;60902;53.876;10.674;2023-02-26T00:23:48;2.60;;;0.70;;
72785;SDS011;60902;53.876;10.674;2023-02-26T00:24:04;3.58;;;0.65;;
72785;SDS011;60902;53.876;10.674;2023-02-26T00:24:15;4.10;;;0.70;;
72785;SDS011;60902;53.876;10.674;2023-02-26T00:24:26;3.85;;;0.80;;
72785;SDS011;60902;53.876;10.674;2023-02-26T00:24:37;3.05;;;0.90;;
72785;SDS011;60902;53.876;10.674;2023-02-26T00:24:49;2.75;;;0.80;;
72785;SDS011;60902;53.876;10.674;2023-02-26T00:24:59;2.65;;;0.70;;
72785;SDS011;60902;53.876;10.674;2023-02-26T00:25:10;2.53;;;0.70;;
72785;SDS011;60902;53.876;10.674;2023-02-26T00:25:22;2.92;;;0.85;;
72785;SDS011;60902;53.876;10.674;2023-02-26T00:25:33;2.83;;;0.77;;
72785;SDS011;60902;53.876;10.674;2023-02-26T00:25:45;2.92;;;0.77;;
72785;SDS011;60902;53.876;10.674;2023-02-26T00:25:56;3.38;;;0.80;;
72785;SDS011;60902;53.876;10.674;2023-02-26T00:26:08;3.63;;;0.90;;
72785;SDS011;60902;53.876;10.674;2023-02-26T00:26:20;3.47;;;0.90;;
72785;SDS011;60902;53.876;10.674;2023-02-26T00:26:32;3.63;;;0.88;;
72785;SDS011;60902;53.876;10.674;2023-02-26T00:26:44;3.28;;;0.80;;
72785;SDS011;60902;53.876;10.674;2023-02-26T00:26:54;3.33;;;1.00;;
72785;SDS011;60902;53.876;10.674;2023-02-26T00:27:06;3.20;;;0.95;;
72785;SDS011;60902;53.876;10.674;2023-02-26T00:27:19;3.10;;;0.90;;
72785;SDS011;60902;53.876;10.674;2023-02-26T00:27:30;2.38;;;0.60;;
72785;SDS011;60902;53.876;10.674;2023-02-26T00:27:41;2.40;;;0.57;;
72785;SDS011;60902;53.876;10.674;2023-02-26T00:27:53;2.40;;;0.50;;
72785;SDS011;60902;53.876;10.674;2023-02-26T00:28:05;3.10;;;0.60;;
72785;SDS011;60902;53.876;10.674;2023-02-26T00:28:18;2.75;;;0.60;;
72785;SDS011;60902;53.876;10.674;2023-02-26T00:28:30;2.50;;;0.52;;
72785;SDS011;60902;53.876;10.674;2023-02-26T00:28:43;2.75;;;0.70;;
72785;SDS011;60902;53.876;10.674;2023-02-26T00:28:55;2.92;;;0.70;;
72785;SDS011;60902;53.876;10.674;2023-02-26T00:29:07;2.63;;;0.63;;
72785;SDS011;60902;53.876;10.674;2023-02-26T00:29:18;2.72;;;0.68;;
72785;SDS011;60902;53.876;10.674;2023-02-26T00:29:29;3.05;;;0.80;;
72785;SDS011;60902;53.876;10.674;2023-02-26T00:29:41;3.45;;;0.98;;
72785;SDS011;60902;53.876;10.674;2023-02-26T00:29:55;2.93;;;0.77;;
72785;SDS011;60902;53.876;10.674;2023-02-26T00:30:07;2.53;;;0.70;;
72785;SDS011;60902;53.876;10.674;2023-02-26T00:30:19;2.10;;;0.57;;
72785;SDS011;60902;53.876;10.674;2023-02-26T00:30:31;2.80;;;0.70;;
72785;SDS011;60902;53.876;10.674;2023-02-26T00:30:43;2.95;;;0.85;;
72785;SDS011;60902;53.876;10.674;2023-02-26T00:30:54;3.22;;;0.95;;
72785;SDS011;60902;53.876;10.674;2023-02-26T00:31:06;3.65;;;1.05;;
72785;SDS011;60902;53.876;10.674;2023-02-26T00:31:19;3.90;;;0.88;;
72785;SDS011;60902;53.876;10.674;2023-02-26T00:31:33;3.15;;;0.77;;
72785;SDS011;60902;53.876;10.674;2023-02-26T00:31:45;2.78;;;0.80;;
72785;SDS011;60902;53.876;10.674;2023-02-26T00:31:56;2.60;;;0.80;;
72785;SDS011;60902;53.876;10.674;2023-02-26T00:32:08;2.70;;;0.80;;
72785;SDS011;60902;53.876;10.674;2023-02-26T00:32:20;2.80;;;0.60;;
72785;SDS011;60902;53.876;10.674;2023-02-26T00:32:32;3.03;;;0.68;;
72785;SDS011;60902;53.876;10.674;2023-02-26T00:32:45;2.67;;;0.60;;
72785;SDS011;60902;53.876;10.674;2023-02-26T00:32:57;2.83;;;0.73;;
72785;SDS011;60902;53.876;10.674;2023-02-26T00:33:08;3.17;;;0.80;;
72785;SDS011;60902;53.876;10.674;2023-02-26T00:33:20;3.03;;;0.70;;
72785;SDS011;60902;53.876;10.674;2023-02-26T00:33:31;2.83;;;0.70;;
72785;SDS011;60902;53.876;10.674;2023-02-26T00:33:43;2.55;;;0.70;;
72785;SDS011;60902;53.876;10.674;2023-02-26T00:33:55;2.72;;;0.70;;
72785;SDS011;60902;53.876;10.674;2023-02-26T00:34:09;2.30;;;0.60;;
72785;SDS011;60902;53.876;10.674;2023-02-26T00:34:23;2.22;;;0.65;;
72785;SDS011;60902;53.876;10.674;2023-02-26T00:34:34;2.47;;;0.70;;
72785;SDS011;60902;53.876;10.674;2023-02-26T00:34:46;2.55;;;0.60;;
72785;SDS011;60902;53.876;10.674;2023-02-26T00:34:58;2.88;;;0.63;;
72785;SDS011;60902;53.876;10.674;2023-02-26T00:35:10;3.35;;;0.73;;
72785;SDS011;60902;53.876;10.674;2023-02-26T00:35:23;2.83;;;0.70;;
72785;SDS011;60902;53.876;10.674;2023-02-26T00:35:35;2.85;;;0.70;;
72785;SDS011;60902;53.876;10.674;2023-02-26T00:35:46;2.58;;;0.70;;
72785;SDS011;60902;53.876;10.674;2023-02-26T00:36:01;3.13;;;0.77;;
72785;SDS011;60902;53.876;10.674;2023-02-26T00:36:28;3.85;;;0.75;;
72785;SDS011;60902;53.876;10.674;2023-02-26T00:36:49;2.50;;;0.70;;
72785;SDS011;60902;53.876;10.674;2023-02-26T00:37:15;3.30;;;0.80;;
72785;SDS011;60902;53.876;10.674;2023-02-26T00:37:44;2.30;;;0.50;;
72785;SDS011;60902;53.876;10.674;2023-02-26T00:38:05;3.95;;;1.02;;
72785;SDS011;60902;53.876;10.674;2023-02-26T00:38:18;3.65;;;0.98;;
72785;SDS011;60902;53.876;10.674;2023-02-26T00:38:29;3.70;;;0.90;;
72785;SDS011;60902;53.876;10.674;2023-02-26T00:38:44;2.72;;;0.70;;
72785;SDS011;60902;53.876;10.674;2023-02-26T00:39:01;2.15;;;0.57;;
72785;SDS011;60902;53.876;10.674;2023-02-26T00:39:23;2.97;;;0.80;;
72785;SDS011;60902;53.876;10.674;2023-02-26T00:39:48;3.00;;;0.65;;
72785;SDS011;60902;53.876;10.674;2023-02-26T00:40:11;2.22;;;0.50;;
72785;SDS011;60902;53.876;10.674;2023-02-26T00:40:29;2.70;;;0.57;;
72785;SDS011;60902;53.876;10.674;2023-02-26T00:40:46;3.85;;;0.80;;
72785;SDS011;60902;53.876;10.674;2023-02-26T00:40:59;3.92;;;0.70;;
72785;SDS011;60902;53.876;10.674;2023-02-26T00:41:10;3.50;;;0.73;;
72785;SDS011;60902;53.876;10.674;2023-02-26T00:41:22;3.35;;;0.80;;
72785;SDS011;60902;53.876;10.674;2023-02-26T00:41:33;3.22;;;0.73;;
72785;SDS011;60902;53.876;10.674;2023-02-26T00:41:45;2.53;;;0.70;;
72785;SDS011;60902;53.876;10.674;2023-02-26T00:41:57;2.47;;;0.80;;
72785;SDS011;60902;53.876;10.674;2023-02-26T00:42:09;2.40;;;0.77;;
72785;SDS011;60902;53.876;10.674;2023-02-26T00:42:21;2.95;;;0.75;;
72785;SDS011;60902;53.876;10.674;2023-02-26T00:42:33;3.78;;;0.80;;
72785;SDS011;60902;53.876;10.674;2023-02-26T00:42:45;3.60;;;0.80;;
72785;SDS011;60902;53.876;10.674;2023-02-26T00:42:56;3.60;;;0.88;;
72785;SDS011;60902;53.876;10.674;2023-02-26T00:43:08;3.05;;;0.80;;
72785;SDS011;60902;53.876;10.674;2023-02-26T00:43:25;2.58;;;0.80;;
72785;SDS011;60902;53.876;10.674;2023-02-26T00:43:37;2.38;;;0.70;;
72785;SDS011;60902;53.876;10.674;2023-02-26T00:43:48;2.55;;;0.70;;
72785;SDS011;60902;53.876;10.674;2023-02-26T00:44:00;2.45;;;0.73;;
72785;SDS011;60902;53.876;10.674;2023-02-26T00:44:12;2.63;;;0.80;;
72785;SDS011;60902;53.876;10.674;2023-02-26T00:44:24;2.83;;;0.73;;
72785;SDS011;60902;53.876;10.674;2023-02-26T00:44:35;2.83;;;0.60;;
72785;SDS011;60902;53.876;10.674;2023-02-26T00:44:47;2.85;;;0.80;;
72785;SDS011;60902;53.876;10.674;2023-02-26T00:44:59;2.60;;;0.70;;
72785;SDS011;60902;53.876;10.674;2023-02-26T00:45:11;2.55;;;0.75;;
72785;SDS011;60902;53.876;10.674;2023-02-26T00:45:25;2.65;;;1.13;;
72785;SDS011;60902;53.876;10.674;2023-02-26T00:45:36;2.85;;;1.20;;
72785;SDS011;60902;53.876;10.674;2023-02-26T00:45:53;2.70;;;0.70;;
72785;SDS011;60902;53.876;10.674;2023-02-26T00:46:12;3.25;;;0.73;;
72785;SDS011;60902;53.876;10.674;2023-02-26T00:46:36;2.78;;;0.63;;
72785;SDS011;60902;53.876;10.674;2023-02-26T00:46:55;3.55;;;0.80;;
72785;SDS011;60902;53.876;10.674;2023-02-26T00:47:14;3.75;;;0.90;;
72785;SDS011;60902;53.876;10.674;2023-02-26T00:47:36;2.40;;;0.70;;
72785;SDS011;60902;53.876;10.674;2023-02-26T00:47:54;2.55;;;0.57;;
72785;SDS011;60902;53.876;10.674;2023-02-26T00:48:29;3.43;;;0.80;;
72785;SDS011;60902;53.876;10.674;2023-02-26T00:48:51;2.90;;;0.98;;
72785;SDS011;60902;53.876;10.674;2023-02-26T00:49:12;3.17;;;0.85;;
72785;SDS011;60902;53.876;10.674;2023-02-26T00:49:37;2.13;;;0.50;;
72785;SDS011;60902;53.876;10.674;2023-02-26T00:50:02;2.78;;;0.80;;
72785;SDS011;60902;53.876;10.674;2023-02-26T00:50:20;3.22;;;0.80;;
72785;SDS011;60902;53.876;10.674;2023-02-26T00:50:32;3.00;;;0.70;;
72785;SDS011;60902;53.876;10.674;2023-02-26T00:50:46;2.70;;;0.63;;
72785;SDS011;60902;53.876;10.674;2023-02-26T00:51:06;3.53;;;0.73;;
72785;SDS011;60902;53.876;10.674;2023-02-26T00:51:24;3.03;;;0.75;;
72785;SDS011;60902;53.876;10.674;2023-02-26T00:51:41;2.28;;;0.60;;
72785;SDS011;60902;53.876;10.674;2023-02-26T00:51:58;2.78;;;0.70;;
72785;SDS011;60902;53.876;10.674;2023-02-26T00:52:15;2.53;;;0.68;;
72785;SDS011;60902;53.876;10.674;2023-02-26T00:52:35;3.13;;;0.93;;
72785;SDS011;60902;53.876;10.674;2023-02-26T00:52:54;3.30;;;0.68;;
72785;SDS011;60902;53.876;10.674;2023-02-26T00:53:14;3.67;;;0.90;;
72785;SDS011;60902;53.876;10.674;2023-02-26T00:53:30;3.08;;;0.95;;
72785;SDS011;60902;53.876;10.674;2023-02-26T00:53:46;3.00;;;0.73;;
72785;SDS011;60902;53.876;10.674;2023-02-26T00:54:03;2.95;;;0.70;;
72785;SDS011;60902;53.876;10.674;2023-02-26T00:54:19;2.33;;;0.65;;
72785;SDS011;60902;53.876;10.674;2023-02-26T00:54:31;2.17;;;0.60;;
72785;SDS011;60902;53.876;10.674;2023-02-26T00:54:42;2.45;;;0.60;;
72785;SDS011;60902;53.876;10.674;2023-02-26T00:54:53;2.60;;;0.70;;
72785;SDS011;60902;53.876;10.674;2023-02-26T00:55:04;2.80;;;0.80;;
72785;SDS011;60902;53.876;10.674;2023-02-26T00:55:15;2.92;;;0.63;;
72785;SDS011;60902;53.876;10.674;2023-02-26T00:55:27;2.95;;;0.50;;
72785;SDS011;60902;53.876;10.674;2023-02-26T00:55:39;3.08;;;0.55;;
72785;SDS011;60902;53.876;10.674;2023-02-26T00:55:51;3.45;;;0.80;;
72785;SDS011;60902;53.876;10.674;2023-02-26T00:56:01;3.72;;;0.90;;
72785;SDS011;60902;53.876;10.674;2023-02-26T00:56:12;2.58;;;0.60;;
72785;SDS011;60902;53.876;10.674;2023-02-26T00:56:24;2.33;;;0.50;;
72785;SDS011;60902;53.876;10.674;2023-02-26T00:56:35;3.00;;;0.60;;
72785;SDS011;60902;53.876;10.674;2023-02-26T00:56:47;3.08;;;0.52;;
72785;SDS011;60902;53.876;10.674;2023-02-26T00:56:58;3.47;;;0.63;;
72785;SDS011;60902;53.876;10.674;2023-02-26T00:57:09;3.15;;;0.68;;
72785;SDS011;60902;53.876;10.674;2023-02-26T00:57:21;3.42;;;0.80;;
72785;SDS011;60902;53.876;10.674;2023-02-26T00:57:33;2.78;;;0.75;;
72785;SDS011;60902;53.876;10.674;2023-02-26T00:57:44;2.60;;;0.68;;
72785;SDS011;60902;53.876;10.674;2023-02-26T00:57:55;2.60;;;0.70;;
72785;SDS011;60902;53.876;10.674;2023-02-26T00:58:06;2.90;;;0.75;;
72785;SDS011;60902;53.876;10.674;2023-02-26T00:58:17;3.30;;;1.00;;
72785;SDS011;60902;53.876;10.674;2023-02-26T00:58:30;3.40;;;1.00;;
72785;SDS011;60902;53.876;10.674;2023-02-26T00:58:41;2.78;;;0.82;;
72785;SDS011;60902;53.876;10.674;2023-02-26T00:58:52;2.35;;;0.60;;
72785;SDS011;60902;53.876;10.674;2023-02-26T00:59:04;2.78;;;0.60;;
72785;SDS011;60902;53.876;10.674;2023-02-26T00:59:15;3.10;;;0.60;;
72785;SDS011;60902;53.876;10.674;2023-02-26T00:59:26;3.08;;;0.68;;
72785;SDS011;60902;53.876;10.674;2023-02-26T00:59:37;2.65;;;0.65;;
72785;SDS011;60902;53.876;10.674;2023-02-26T00:59:48;3.07;;;0.70;;
72785;SDS011;60902;53.876;10.674;2023-02-26T01:00:01;3.38;;;0.80;;
72785;SDS011;60902;53.876;10.674;2023-02-26T01:00:15;4.13;;;0.90;;
72785;SDS011;60902;53.876;10.674;2023-02-26T01:00:27;4.07;;;0.77;;
72785;SDS011;60902;53.876;10.674;2023-02-26T01:00:39;3.92;;;0.70;;
72785;SDS011;60902;53.876;10.674;2023-02-26T01:00:51;3.28;;;0.70;;
72785;SDS011;60902;53.876;10.674;2023-02-26T01:01:01;3.35;;;0.65;;
72785;SDS011;60902;53.876;10.674;2023-02-26T01:01:12;3.45;;;0.63;;
72785;SDS011;60902;53.876;10.674;2023-02-26T01:01:23;3.10;;;0.60;;
72785;SDS011;60902;53.876;10.674;2023-02-26T01:01:34;2.75;;;0.60;;
72785;SDS011;60902;53.876;10.674;2023-02-26T01:01:45;2.30;;;0.60;;
72785;SDS011;60902;53.876;10.674;2023-02-26T01:01:58;2.42;;;0.50;;
72785;SDS011;60902;53.876;10.674;2023-02-26T01:02:10;3.00;;;0.55;;
72785;SDS011;60902;53.876;10.674;2023-02-26T01:02:21;3.33;;;0.60;;
72785;SDS011;60902;53.876;10.674;2023-02-26T01:02:34;3.85;;;0.70;;
72785;SDS011;60902;53.876;10.674;2023-02-26T01:02:46;3.28;;;0.70;;
72785;SDS011;60902;53.876;10.674;2023-02-26T01:02:58;2.70;;;0.60;;
72785;SDS011;60902;53.876;10.674;2023-02-26T01:03:10;2.28;;;0.60;;
72785;SDS011;60902;53.876;10.674;2023-02-26T01:03:21;2.47;;;0.57;;
72785;SDS011;60902;53.876;10.674;2023-02-26T01:03:33;3.10;;;0.70;;
72785;SDS011;60902;53.876;10.674;2023-02-26T01:03:45;3.63;;;0.88;;
72785;SDS011;60902;53.876;10.674;2023-02-26T01:03:56;3.45;;;0.90;;
72785;SDS011;60902;53.876;10.674;2023-02-26T01:04:09;3.20;;;0.65;;
72785;SDS011;60902;53.876;10.674;2023-02-26T01:04:21;2.92;;;0.50;;
72785;SDS011;60902;53.876;10.674;2023-02-26T01:04:33;2.72;;;0.50;;
72785;SDS011;60902;53.876;10.674;2023-02-26T01:04:45;2.90;;;0.52;;
72785;SDS011;60902;53.876;10.674;2023-02-26T01:04:57;2.72;;;0.70;;
72785;SDS011;60902;53.876;10.674;2023-02-26T01:05:10;2.83;;;0.80;;
72785;SDS011;60902;53.876;10.674;2023-02-26T01:05:22;3.20;;;0.70;;
72785;SDS011;60902;53.876;10.674;2023-02-26T01:05:35;3.65;;;0.65;;
72785;SDS011;60902;53.876;10.674;2023-02-26T01:05:46;3.67;;;0.73;;
72785;SDS011;60902;53.876;10.674;2023-02-26T01:05:58;2.95;;;0.77;;
72785;SDS011;60902;53.876;10.674;2023-02-26T01:06:10;2.55;;;0.75;;
72785;SDS011;60902;53.876;10.674;2023-02-26T01:06:25;3.00;;;0.90;;
72785;SDS011;60902;53.876;10.674;2023-02-26T01:06:40;3.10;;;0.80;;
72785;SDS011;60902;53.876;10.674;2023-02-26T01:06:54;2.90;;;0.60;;
72785;SDS011;60902;53.876;10.674;2023-02-26T01:07:07;2.92;;;0.70;;
72785;SDS011;60902;53.876;10.674;2023-02-26T01:07:21;2.72;;;0.70;;
72785;SDS011;60902;53.876;10.674;2023-02-26T01:07:36;3.15;;;0.60;;
72785;SDS011;60902;53.876;10.674;2023-02-26T01:07:52;2.85;;;0.60;;
72785;SDS011;60902;53.876;10.674;2023-02-26T01:08:08;3.53;;;0.68;;
72785;SDS011;60902;53.876;10.674;2023-02-26T01:08:26;3.85;;;0.95;;
72785;SDS011;60902;53.876;10.674;2023-02-26T01:08:42;2.72;;;0.88;;
72785;SDS011;60902;53.876;10.674;2023-02-26T01:09:02;2.67;;;0.60;;
72785;SDS011;60902;53.876;10.674;2023-02-26T01:09:22;2.17;;;0.50;;
72785;SDS011;60902;53.876;10.674;2023-02-26T01:09:36;2.85;;;0.60;;
72785;SDS011;60902;53.876;10.674;2023-02-26T01:09:48;2.67;;;0.70;;
72785;SDS011;60902;53.876;10.674;2023-02-26T01:09:59;2.38;;;0.68;;
72785;SDS011;60902;53.876;10.674;2023-02-26T01:10:11;2.50;;;0.68;;
72785;SDS011;60902;53.876;10.674;2023-02-26T01:10:23;2.83;;;0.80;;
72785;SDS011;60902;53.876;10.674;2023-02-26T01:10:35;2.67;;;0.88;;
72785;SDS011;60902;53.876;10.674;2023-02-26T01:10:48;3.25;;;0.90;;
72785;SDS011;60902;53.876;10.674;2023-02-26T01:11:00;3.58;;;1.00;;
72785;SDS011;60902;53.876;10.674;2023-02-26T01:11:12;3.47;;;1.10;;
72785;SDS011;60902;53.876;10.674;2023-02-26T01:11:23;2.88;;;0.75;;
72785;SDS011;60902;53.876;10.674;2023-02-26T01:11:35;3.17;;;0.65;;
72785;SDS011;60902;53.876;10.674;2023-02-26T01:11:47;3.03;;;0.60;;
72785;SDS011;60902;53.876;10.674;2023-02-26T01:12:00;2.65;;;0.52;;
72785;SDS011;60902;53.876;10.674;2023-02-26T01:12:14;2.78;;;0.70;;
72785;SDS011;60902;53.876;10.674;2023-02-26T01:12:26;2.80;;;0.82;;
72785;SDS011;60902;53.876;10.674;2023-02-26T01:12:37;3.60;;;1.00;;
72785;SDS011;60902;53.876;10.674;2023-02-26T01:12:49;3.75;;;0.90;;
72785;SDS011;60902;53.876;10.674;2023-02-26T01:13:01;3.03;;;0.70;;
72785;SDS011;60902;53.876;10.674;2023-02-26T01:13:12;2.60;;;0.60;;
72785;SDS011;60902;53.876;10.674;2023-02-26T01:13:23;2.22;;;0.50;;
72785;SDS011;60902;53.876;10.674;2023-02-26T01:13:36;2.70;;;0.60;;
72785;SDS011;60902;53.876;10.674;2023-02-26T01:13:49;2.90;;;0.60;;
72785;SDS011;60902;53.876;10.674;2023-02-26T01:14:01;2.72;;;0.70;;
72785;SDS011;60902;53.876;10.674;2023-02-26T01:14:13;3.00;;;0.80;;
72785;SDS011;60902;53.876;10.674;2023-02-26T01:14:24;3.00;;;0.75;;
72785;SDS011;60902;53.876;10.674;2023-02-26T01:14:36;2.88;;;0.80;;
72785;SDS011;60902;53.876;10.674;2023-02-26T01:14:49;2.73;;;0.70;;
72785;SDS011;60902;53.876;10.674;2023-02-26T01:15:01;2.88;;;0.73;;
72785;SDS011;60902;53.876;10.674;2023-02-26T01:15:15;2.65;;;0.60;;
72785;SDS011;60902;53.876;10.674;2023-02-26T01:15:27;2.55;;;0.60;;
72785;SDS011;60902;53.876;10.674;2023-02-26T01:15:39;2.80;;;0.68;;
72785;SDS011;60902;53.876;10.674;2023-02-26T01:15:57;2.33;;;0.60;;
72785;SDS011;60902;53.876;10.674;2023-02-26T01:16:15;2.13;;;0.68;;
72785;SDS011;60902;53.876;10.674;2023-02-26T01:16:33;2.50;;;0.80;;
72785;SDS011;60902;53.876;10.674;2023-02-26T01:16:52;2.72;;;0.57;;
72785;SDS011;60902;53.876;10.674;2023-02-26T01:17:10;4.05;;;0.77;;
72785;SDS011;60902;53.876;10.674;2023-02-26T01:17:27;3.63;;;0.68;;
72785;SDS011;60902;53.876;10.674;2023-02-26T01:17:44;2.60;;;0.57;;
72785;SDS011;60902;53.876;10.674;2023-02-26T01:18:02;2.08;;;0.60;;
72785;SDS011;60902;53.876;10.674;2023-02-26T01:18:20;2.15;;;0.50;;
72785;SDS011;60902;53.876;10.674;2023-02-26T01:18:36;2.33;;;0.65;;
72785;SDS011;60902;53.876;10.674;2023-02-26T01:18:52;2.28;;;0.80;;